Strona główna
METAR-TAF:

METAR-TAF

Lotnisko :

Port lotniczy Ateny

Ateny, Grecja

Szerokość geograficzna: 37-56N, Długość geograficzna: 023-56E, wysokość: 94 m

Aktualna obserwacja pogody

Raport powstał 41 minut temu, godzina 11:20 UTC
Wiatr 10 kt od południe
Temperatura 19°C
Wilgotność 60%
Ciśnienie 1026 hPa
Widzialność 10 km lub więcej
Mało chmury na wysokości 1800 ft

METAR: LGAV 161120Z 19010KT 9999 FEW018 19/11 Q1026 NOSIG

czas: 14:01 (12:01 UTC)

Prognoza

Raport powstał 1 godzina i 1 minut temu, godzina 11:00 UTC
Prognoza ważna od 16 godzina 12 UTC do 17 godzina 12 UTC
Wiatr 8 kt od południowo-południowy zachód
Widzialność 10 km lub więcej
Mało chmury na wysokości 1800 ft
Prawdopodobieństwo 30%
od 17 godzina 00 UTC do 17 godzina 05 UTC
Widzialność: 5000 m
Rozproszone chmury na wysokości 800 ft
Przerywane chmury na wysokości 2500 ft
zamglenie

TAF: LGAV 161100Z 1612/1712 20008KT 9999 FEW018 PROB30 1700/1705 5000 BR SCT008 BKN025

Obserwacja i prognoza pogody dla ponad 4000 lotnisk (raport METAR i TAF).

Dostępne stacje oznaczono żółtymi i czerwonymi punktami na mapie.

Najedź kursorem aby zobaczyć nazwę stacji.

Kliknij aby zobaczyć obserwacje i prognozy pogody.

Aby zmienić mapę: kliknij na zielony przycisk z czarnym krzyżykiem, aby powiększyć; na zielony przycisk z myślnikiem, aby pomniejszyć; na zielone strzałki, aby przejść do map sąsiednich.


METAR-TAF: